Time;durP1;ratioP1;P1;durP2;ratioP2;P2;SDS_P1;SDS_P2;PMS_P1;PMS_P2;Temp;Humidity;BMP_temperature;BMP_pressure;BME280_temperature;BME280_humidity;BME280_pressure;Samples;Min_cycle;Max_cycle;Signal;HPM_P1;HPM_P2
2022/10/05 00:01:00;;;;;;;5.10;2.77;;;;;;;22.66;56.29;98107.44;5039725;28;20234;-31
2022/10/05 00:03:37;;;;;;;4.50;2.83;;;;;;;22.61;56.39;98096.16;5049307;28;20214;-31
2022/10/05 00:06:04;;;;;;;7.43;3.63;;;;;;;22.66;56.29;98104.88;5048019;28;20216;-31
2022/10/05 00:08:32;;;;;;;5.90;3.10;;;;;;;22.66;56.34;98102.31;5051753;28;20200;-31
2022/10/05 00:10:59;;;;;;;6.77;3.20;;;;;;;22.65;56.35;98098.88;5047829;28;20193;-31
2022/10/05 00:13:27;;;;;;;5.83;3.00;;;;;;;22.66;56.26;98105.75;5031600;28;20216;-31
2022/10/05 00:16:04;;;;;;;6.90;2.70;;;;;;;22.65;56.29;98104.00;5047495;28;20231;-31
2022/10/05 00:18:31;;;;;;;5.43;3.27;;;;;;;22.66;56.38;98110.88;5044901;28;20201;-31
2022/10/05 00:20:57;;;;;;;5.00;2.67;;;;;;;22.65;56.70;98096.31;5028392;28;20794;-31
2022/10/05 00:23:30;;;;;;;3.97;2.93;;;;;;;22.61;56.22;98085.91;5049287;28;20212;-31
2022/10/05 00:26:31;;;;;;;4.60;2.67;;;;;;;22.67;56.29;98089.56;5047805;28;20237;-31
2022/10/05 00:28:57;;;;;;;5.70;2.97;;;;;;;22.65;56.34;98093.75;5050343;28;20553;-31
2022/10/05 00:31:28;;;;;;;7.50;3.47;;;;;;;22.66;56.29;98082.69;5049171;28;20193;-31
2022/10/05 00:33:54;;;;;;;6.03;2.87;;;;;;;22.65;56.27;98083.50;5047739;28;20212;-31
2022/10/05 00:36:21;;;;;;;6.00;3.20;;;;;;;22.66;56.23;98084.38;5046530;28;20228;-31
2022/10/05 00:38:47;;;;;;;5.97;3.10;;;;;;;22.65;56.28;98083.50;5046586;28;20208;-31
2022/10/05 00:41:23;;;;;;;4.93;2.70;;;;;;;22.65;56.31;98083.50;5049251;28;20255;-31
2022/10/05 00:44:11;;;;;;;4.90;2.73;;;;;;;22.63;56.34;98081.72;5033715;28;20215;-31
2022/10/05 00:46:54;;;;;;;6.20;3.13;;;;;;;22.65;56.32;98087.78;5035045;28;20232;-31
2022/10/05 00:49:45;;;;;;;5.07;2.90;;;;;;;22.65;56.35;98088.63;5051184;28;20197;-31
2022/10/05 00:52:46;;;;;;;6.30;2.90;;;;;;;22.65;56.32;98086.06;5054327;28;20202;-31
2022/10/05 00:55:38;;;;;;;6.47;2.97;;;;;;;22.65;56.32;98091.19;5004691;28;20201;-31
2022/10/05 00:58:23;;;;;;;5.63;2.70;;;;;;;22.65;56.35;98083.50;5049737;28;20203;-31
2022/10/05 01:00:50;;;;;;;4.30;2.90;;;;;;;22.65;56.26;98074.97;5050695;28;20220;-31
2022/10/05 01:03:25;;;;;;;2.97;2.57;;;;;;;22.64;56.46;98074.06;5052216;28;20235;-31
2022/10/05 01:06:09;;;;;;;3.93;2.60;;;;;;;22.64;56.45;98071.50;5040079;28;20583;-31
2022/10/05 01:08:40;;;;;;;3.87;2.50;;;;;;;22.65;56.37;98069.84;5057933;28;20208;-31
2022/10/05 01:11:17;;;;;;;5.27;2.67;;;;;;;22.66;56.34;98076.69;5049054;28;20197;-31
2022/10/05 01:13:58;;;;;;;5.23;2.73;;;;;;;22.56;56.47;98064.41;5049858;28;20342;-31
2022/10/05 01:16:29;;;;;;;3.77;2.37;;;;;;;22.65;56.29;98074.97;5025181;28;20231;-31
2022/10/05 01:19:01;;;;;;;4.90;2.90;;;;;;;22.61;56.47;98065.41;5052803;28;20215;-31
2022/10/05 01:21:27;;;;;;;5.93;2.77;;;;;;;22.62;56.41;98075.72;5033807;28;20227;-31
2022/10/05 01:24:09;;;;;;;4.17;2.77;;;;;;;22.65;56.45;98074.97;5050124;28;20213;-31
2022/10/05 01:26:42;;;;;;;3.93;2.67;;;;;;;22.64;56.50;98068.06;5051568;28;20609;-31
2022/10/05 01:29:25;;;;;;;7.50;3.00;;;;;;;22.66;56.48;98071.56;5025362;28;20576;-31
2022/10/05 01:32:26;;;;;;;4.10;2.50;;;;;;;22.56;56.48;98055.00;5051196;28;20777;-31
2022/10/05 01:35:14;;;;;;;4.67;3.10;;;;;;;22.63;56.56;98062.09;5049621;28;20200;-31
2022/10/05 01:38:01;;;;;;;5.40;2.97;;;;;;;22.62;56.49;98060.34;5053615;28;20212;-31
2022/10/05 01:40:27;;;;;;;4.83;2.87;;;;;;;22.64;56.30;98055.25;5050409;28;20306;-31
2022/10/05 01:43:13;;;;;;;3.40;2.63;;;;;;;22.64;56.32;98051.03;5053274;28;20201;-31
2022/10/05 01:46:05;;;;;;;4.30;2.50;;;;;;;22.64;56.50;98051.03;5048876;28;20228;-31
2022/10/05 01:48:57;;;;;;;4.97;2.90;;;;;;;22.65;56.44;98051.91;5051283;28;20505;-31
2022/10/05 01:51:23;;;;;;;3.10;2.60;;;;;;;22.64;56.48;98043.34;5048366;28;20205;-31
2022/10/05 01:54:11;;;;;;;4.57;2.90;;;;;;;22.64;56.37;98043.34;5051411;28;20200;-31
2022/10/05 01:56:53;;;;;;;4.20;2.70;;;;;;;22.65;56.70;98044.22;5051680;28;20245;-31
2022/10/05 01:59:38;;;;;;;2.60;2.30;;;;;;;22.64;56.48;98042.44;5050605;28;20213;-31
2022/10/05 02:02:08;;;;;;;4.27;2.90;;;;;;;22.57;56.40;98015.78;5047809;28;20205;-31
2022/10/05 02:04:54;;;;;;;3.93;2.60;;;;;;;22.65;56.43;98036.53;5047539;28;20209;-31
2022/10/05 02:07:33;;;;;;;3.37;2.57;;;;;;;22.65;56.57;98041.66;5048845;28;20711;-31
2022/10/05 02:10:04;;;;;;;3.07;2.50;;;;;;;22.45;56.38;97999.97;5052681;28;20205;-31
2022/10/05 02:12:33;;;;;;;4.53;2.70;;;;;;;22.65;56.44;98026.28;5049532;28;20209;-31
2022/10/05 02:15:06;;;;;;;4.07;2.37;;;;;;;22.57;56.48;98008.09;5032737;28;20649;-31
2022/10/05 02:17:39;;;;;;;3.40;2.33;;;;;;;22.62;56.43;98027.03;5049371;28;20673;-31
2022/10/05 02:20:09;;;;;;;3.90;2.40;;;;;;;22.59;56.55;98029.50;5036075;28;20217;-31
2022/10/05 02:22:41;;;;;;;3.57;2.77;;;;;;;22.65;56.57;98046.78;5050523;28;20567;-31
2022/10/05 02:25:16;;;;;;;2.90;2.40;;;;;;;22.54;56.37;98028.50;5023979;28;20589;-31
2022/10/05 02:27:56;;;;;;;4.13;2.90;;;;;;;22.62;56.59;98033.88;5049362;28;20200;-31
2022/10/05 02:30:23;;;;;;;6.30;2.50;;;;;;;22.61;56.43;98029.53;5049576;28;20262;-31
2022/10/05 02:33:04;;;;;;;3.83;2.57;;;;;;;22.64;56.49;98038.22;5051360;28;20208;-31
2022/10/05 02:35:31;;;;;;;3.20;2.50;;;;;;;22.65;56.47;98054.47;5045087;28;20247;-31
2022/10/05 02:38:00;;;;;;;5.63;2.53;;;;;;;22.64;56.63;98058.72;5050708;28;20205;-31
2022/10/05 02:40:54;;;;;;;4.13;2.40;;;;;;;22.65;56.38;98051.91;5053654;28;20213;-31
2022/10/05 02:43:25;;;;;;;3.50;2.30;;;;;;;22.65;56.45;98044.22;5043570;28;20212;-31
2022/10/05 02:46:05;;;;;;;5.10;2.30;;;;;;;22.61;56.46;98039.78;5048987;28;20614;-31
2022/10/05 02:48:54;;;;;;;5.60;2.60;;;;;;;22.54;56.51;98027.59;5049047;28;20304;-31
2022/10/05 02:51:39;;;;;;;3.73;2.40;;;;;;;22.65;56.45;98050.19;5048268;28;20200;-31
2022/10/05 02:54:31;;;;;;;2.53;2.30;;;;;;;22.64;56.42;98053.59;5055763;28;20327;-31
2022/10/05 02:57:23;;;;;;;3.47;2.50;;;;;;;22.65;56.68;98059.59;5050642;28;20220;-31
2022/10/05 03:00:06;;;;;;;2.57;2.20;;;;;;;22.65;56.38;98060.44;5046533;28;20224;-31
2022/10/05 03:02:50;;;;;;;3.53;2.43;;;;;;;22.65;56.52;98049.34;5051225;28;20219;-31
2022/10/05 03:05:18;;;;;;;2.73;2.33;;;;;;;22.64;56.52;98045.91;5054840;28;20430;-31
2022/10/05 03:08:01;;;;;;;2.97;2.30;;;;;;;22.65;56.42;98044.22;5051272;28;20200;-31
2022/10/05 03:10:52;;;;;;;3.43;2.40;;;;;;;22.56;56.26;98020.84;5048835;28;20201;-31
2022/10/05 03:13:40;;;;;;;2.23;2.03;;;;;;;22.64;56.39;98043.34;5037737;28;20209;-31
2022/10/05 03:16:15;;;;;;;3.17;2.47;;;;;;;22.64;56.44;98047.56;5049491;28;20227;-31
2022/10/05 03:19:11;;;;;;;3.97;2.63;;;;;;;22.65;56.49;98054.47;5052724;28;20204;-31
2022/10/05 03:22:07;;;;;;;3.30;2.47;;;;;;;22.64;56.50;98045.91;5048027;28;20611;-31
2022/10/05 03:24:39;;;;;;;3.97;2.40;;;;;;;22.63;56.28;98039.03;5048147;28;20201;-31
2022/10/05 03:27:27;;;;;;;2.80;2.43;;;;;;;22.64;56.52;98038.22;5033869;28;20745;-31
2022/10/05 03:30:06;;;;;;;3.43;2.50;;;;;;;22.64;56.40;98030.53;5055248;28;20371;-31
2022/10/05 03:32:48;;;;;;;3.17;2.40;;;;;;;22.64;56.47;98016.84;5045692;28;20203;-31
2022/10/05 03:35:47;;;;;;;3.33;2.60;;;;;;;22.64;56.55;98010.03;5044301;28;20201;-30
2022/10/05 03:38:16;;;;;;;3.57;2.50;;;;;;;22.63;56.67;98007.41;5030124;28;20208;-31
2022/10/05 03:40:43;;;;;;;3.53;2.30;;;;;;;22.64;56.41;98001.47;5048301;28;20220;-31
2022/10/05 03:43:31;;;;;;;3.50;2.30;;;;;;;22.64;56.40;98001.47;5049507;28;20208;-31
2022/10/05 03:46:19;;;;;;;2.97;2.23;;;;;;;22.64;56.47;98001.47;5047791;28;20213;-31
2022/10/05 03:48:58;;;;;;;2.37;2.17;;;;;;;22.63;56.33;98015.09;5046775;28;20258;-31
2022/10/05 03:51:56;;;;;;;2.67;2.43;;;;;;;22.64;56.45;98016.84;5040416;28;20579;-31
2022/10/05 03:54:25;;;;;;;5.63;2.50;;;;;;;22.63;56.41;98015.97;5044289;28;20201;-31
2022/10/05 03:57:10;;;;;;;3.20;2.30;;;;;;;22.64;56.61;98027.97;5016708;28;20216;-31
2022/10/05 03:59:40;;;;;;;3.97;2.43;;;;;;;22.64;56.31;98029.63;5028001;28;20201;-31
2022/10/05 04:02:22;;;;;;;2.80;2.37;;;;;;;22.64;56.40;98027.97;5047191;28;20228;-31
2022/10/05 04:04:51;;;;;;;2.53;2.33;;;;;;;22.64;56.46;98029.63;5032494;28;20561;-31
2022/10/05 04:07:35;;;;;;;3.00;2.10;;;;;;;22.65;56.21;98023.72;5030907;28;20217;-31
2022/10/05 04:10:04;;;;;;;2.90;2.50;;;;;;;22.64;56.39;98024.50;5031177;28;20199;-31
2022/10/05 04:12:41;;;;;;;3.37;2.53;;;;;;;22.58;56.42;98003.81;5030800;28;20207;-31
2022/10/05 04:15:32;;;;;;;2.47;2.13;;;;;;;22.55;56.42;98004.59;5028516;28;20292;-31
2022/10/05 04:18:15;;;;;;;2.40;2.20;;;;;;;22.63;56.44;98028.78;5035491;28;20212;-31
2022/10/05 04:20:47;;;;;;;2.73;2.30;;;;;;;22.55;56.54;98008.84;5052565;28;20238;-31
2022/10/05 04:23:29;;;;;;;3.60;2.70;;;;;;;22.51;56.39;98004.44;5035247;28;20228;-31
2022/10/05 04:26:02;;;;;;;2.67;2.37;;;;;;;22.64;56.22;98030.53;5034970;28;20224;-31
2022/10/05 04:29:10;;;;;;;3.50;2.27;;;;;;;22.64;56.47;98034.75;5049966;28;20588;-31
2022/10/05 04:32:02;;;;;;;3.07;2.07;;;;;;;22.63;56.42;98027.91;5040786;28;20201;-31
2022/10/05 04:34:59;;;;;;;4.10;2.20;;;;;;;22.64;56.41;98029.63;5052813;28;20205;-31
2022/10/05 04:37:49;;;;;;;2.10;1.90;;;;;;;22.64;56.54;98021.97;5047033;28;20224;-31
2022/10/05 04:40:34;;;;;;;3.20;2.00;;;;;;;22.65;56.39;98022.00;5050585;28;20205;-31
2022/10/05 04:43:31;;;;;;;3.03;2.20;;;;;;;22.65;56.37;98027.13;5043596;28;20205;-31
2022/10/05 04:46:22;;;;;;;3.83;2.20;;;;;;;22.65;56.37;98027.13;5045638;28;20547;-30
2022/10/05 04:48:58;;;;;;;2.83;2.00;;;;;;;22.65;56.46;98023.72;5050992;28;20678;-31
2022/10/05 04:52:08;;;;;;;2.30;2.10;;;;;;;22.65;56.39;98016.88;5050333;28;20215;-31
2022/10/05 04:54:40;;;;;;;3.10;2.30;;;;;;;22.60;56.34;98009.88;5025127;28;20209;-31
2022/10/05 04:57:18;;;;;;;3.20;2.30;;;;;;;22.65;56.31;98024.56;5049984;28;20245;-31
2022/10/05 05:00:07;;;;;;;5.00;3.10;;;;;;;22.64;54.14;98010.03;5040806;28;20197;-31
2022/10/05 05:02:52;;;;;;;7.77;3.73;;;;;;;22.64;52.31;98015.16;5052230;28;20244;-31
2022/10/05 05:05:56;;;;;;;6.53;4.13;;;;;;;22.63;51.87;98013.41;5050416;28;20205;-31
2022/10/05 05:08:57;;;;;;;6.23;4.27;;;;;;;22.62;50.26;98009.09;5050872;28;20225;-31
2022/10/05 05:11:27;;;;;;;7.00;3.90;;;;;;;22.61;49.88;98007.38;5043697;28;20607;-31
2022/10/05 05:14:15;;;;;;;6.67;4.50;;;;;;;22.62;50.91;98013.38;5050194;28;20193;-31
2022/10/05 05:16:43;;;;;;;8.33;4.50;;;;;;;22.62;51.54;98019.34;5044641;28;20232;-31
2022/10/05 05:19:34;;;;;;;11.00;4.33;;;;;;;22.61;51.93;98022.75;5031322;28;20236;-31
2022/10/05 05:22:37;;;;;;;6.30;4.20;;;;;;;22.62;52.47;98018.50;5043076;28;20599;-31
2022/10/05 05:25:30;;;;;;;10.83;4.33;;;;;;;22.62;52.62;98023.63;5060982;28;20200;-31
2022/10/05 05:28:07;;;;;;;8.20;3.50;;;;;;;22.58;52.97;98016.63;5048151;28;20209;-31
2022/10/05 05:30:34;;;;;;;6.07;3.70;;;;;;;22.61;52.94;98020.16;5047554;28;20761;-31
2022/10/05 05:33:23;;;;;;;5.10;3.80;;;;;;;22.63;53.16;98020.22;5050996;28;20204;-31
2022/10/05 05:35:58;;;;;;;4.30;3.50;;;;;;;22.62;53.29;98024.47;5049974;28;20229;-31
2022/10/05 05:38:49;;;;;;;5.53;3.73;;;;;;;22.63;53.51;98023.66;5045393;28;20671;-31
2022/10/05 05:41:26;;;;;;;8.07;3.93;;;;;;;22.64;53.57;98027.97;5044792;28;20228;-31
2022/10/05 05:44:24;;;;;;;7.97;3.63;;;;;;;22.64;53.63;98021.97;5050499;28;20208;-31
2022/10/05 05:47:01;;;;;;;4.70;3.50;;;;;;;22.59;53.82;98003.88;5050845;28;20231;-31
2022/10/05 05:49:53;;;;;;;4.30;3.30;;;;;;;22.62;53.93;98011.66;5028861;28;20201;-31
2022/10/05 05:52:27;;;;;;;5.10;3.67;;;;;;;22.64;53.95;98014.25;5043828;28;20608;-31
2022/10/05 05:55:12;;;;;;;4.17;3.50;;;;;;;22.65;54.06;98016.88;5033789;28;20200;-30
2022/10/05 05:58:15;;;;;;;6.37;3.57;;;;;;;22.66;54.12;98022.88;5048482;28;20643;-31
2022/10/05 06:01:10;;;;;;;4.90;3.27;;;;;;;22.67;54.18;98032.31;5051024;28;20674;-31
2022/10/05 06:04:00;;;;;;;6.80;3.50;;;;;;;22.66;54.26;98028.91;5049615;28;20209;-31
2022/10/05 06:06:31;;;;;;;5.80;3.50;;;;;;;22.66;54.39;98034.03;5054469;28;20311;-31
2022/10/05 06:09:01;;;;;;;6.90;3.30;;;;;;;22.68;54.18;98032.34;5051492;28;20205;-31
2022/10/05 06:11:44;;;;;;;6.97;3.60;;;;;;;22.66;54.44;98041.69;5048249;28;20806;-31
2022/10/05 06:14:22;;;;;;;7.10;3.33;;;;;;;22.68;54.32;98047.72;5030039;28;20209;-31
2022/10/05 06:17:11;;;;;;;6.53;3.10;;;;;;;22.69;54.53;98048.59;5046498;28;20228;-31
2022/10/05 06:19:37;;;;;;;6.00;3.30;;;;;;;22.69;55.09;98057.19;5043946;28;20208;-30
2022/10/05 06:22:41;;;;;;;5.27;3.50;;;;;;;22.70;54.50;98058.91;5048926;28;20232;-31
2022/10/05 06:25:24;;;;;;;6.23;3.50;;;;;;;22.66;54.63;98051.06;5038265;28;20200;-31
2022/10/05 06:28:12;;;;;;;8.37;3.10;;;;;;;22.71;54.50;98057.22;5032367;28;20201;-31
2022/10/05 06:30:54;;;;;;;6.73;3.73;;;;;;;22.70;54.52;98055.47;5044940;28;20584;-31
2022/10/05 06:33:23;;;;;;;3.97;3.40;;;;;;;22.71;54.60;98058.06;5042867;28;20209;-31
2022/10/05 06:36:26;;;;;;;6.23;3.20;;;;;;;22.63;54.56;98048.41;5046993;28;20707;-31
2022/10/05 06:39:13;;;;;;;8.53;3.33;;;;;;;22.72;54.49;98066.66;5051840;28;20714;-31
2022/10/05 06:41:49;;;;;;;5.07;3.30;;;;;;;22.71;54.73;98068.31;5042631;28;20236;-31
2022/10/05 06:44:20;;;;;;;5.43;3.47;;;;;;;22.72;54.48;98077.78;5049222;28;20207;-31
2022/10/05 06:46:52;;;;;;;8.47;3.53;;;;;;;22.62;54.60;98054.34;5037075;28;20231;-31
2022/10/05 06:49:25;;;;;;;4.87;3.50;;;;;;;22.72;54.61;98080.34;5043030;28;20208;-31
2022/10/05 06:52:00;;;;;;;9.23;3.90;;;;;;;22.72;53.48;98080.34;5044877;28;20201;-31
2022/10/05 06:54:26;;;;;;;6.97;4.00;;;;;;;22.71;52.50;98081.13;5025833;28;20578;-31
2022/10/05 06:57:18;;;;;;;4.30;3.60;;;;;;;22.72;53.16;98089.72;5046126;28;20221;-31
2022/10/05 06:59:56;;;;;;;6.33;3.73;;;;;;;22.63;53.37;98076.59;5045105;28;20197;-31
2022/10/05 07:02:31;;;;;;;8.33;3.73;;;;;;;22.71;53.46;98090.53;5047885;28;20228;-31
2022/10/05 07:05:29;;;;;;;8.67;3.57;;;;;;;22.69;53.73;98084.47;5048167;28;20209;-31
2022/10/05 07:08:02;;;;;;;4.20;3.13;;;;;;;22.70;53.92;98092.22;5048261;28;20215;-31
2022/10/05 07:10:56;;;;;;;8.27;3.43;;;;;;;22.71;54.18;98095.66;5047300;28;20197;-31
2022/10/05 07:13:26;;;;;;;5.83;3.83;;;;;;;22.70;54.05;98101.59;5028846;28;20212;-31
2022/10/05 07:16:17;;;;;;;6.50;3.60;;;;;;;22.68;54.04;98098.97;5047799;28;20228;-31
2022/10/05 07:19:02;;;;;;;6.13;3.23;;;;;;;22.71;54.19;98100.78;5043708;28;20208;-31
2022/10/05 07:21:58;;;;;;;4.00;3.43;;;;;;;22.71;54.23;98100.78;5037891;28;20239;-31
2022/10/05 07:24:29;;;;;;;4.57;3.43;;;;;;;22.62;54.14;98090.22;5046417;28;20204;-31
2022/10/05 07:27:32;;;;;;;3.43;3.13;;;;;;;22.70;54.25;98102.47;5048270;28;20448;-31
2022/10/05 07:30:08;;;;;;;3.73;3.13;;;;;;;22.70;54.23;98107.59;5010106;28;20209;-31
2022/10/05 07:32:38;;;;;;;5.90;3.37;;;;;;;22.70;54.42;98110.16;5042280;28;20278;-31
2022/10/05 07:38:34;;;;;;;7.70;3.50;;;;;;;22.71;54.37;98122.13;5046580;28;20386;-31
2022/10/05 07:41:05;;;;;;;10.47;4.33;;;;;;;22.71;53.39;98114.44;5045980;28;20205;-31
2022/10/05 07:43:41;;;;;;;5.90;3.60;;;;;;;22.68;53.27;98116.06;5047446;28;20211;-31
2022/10/05 07:46:50;;;;;;;7.70;4.30;;;;;;;22.71;52.99;98124.69;5045761;28;20221;-31
2022/10/05 07:49:35;;;;;;;9.43;4.30;;;;;;;22.71;52.56;98124.69;5046295;28;20211;-31
2022/10/05 07:52:14;;;;;;;7.20;4.67;;;;;;;22.70;52.42;98125.53;5043730;28;20201;-31
2022/10/05 07:55:17;;;;;;;9.90;4.53;;;;;;;22.66;52.79;98121.13;5042570;28;20211;-31
2022/10/05 07:57:51;;;;;;;5.70;4.70;;;;;;;22.70;53.05;98128.09;5060765;28;20278;-31
2022/10/05 08:00:19;;;;;;;5.07;4.30;;;;;;;22.70;53.25;98127.22;5053174;28;20616;-31
2022/10/05 08:02:57;;;;;;;7.73;4.20;;;;;;;22.59;53.36;98105.50;5047687;28;20219;-31
2022/10/05 08:05:31;;;;;;;7.93;4.10;;;;;;;22.70;53.58;98129.78;5029517;28;20283;-31
2022/10/05 08:08:10;;;;;;;6.63;4.47;;;;;;;22.68;53.62;98119.47;5045340;28;20208;-31
2022/10/05 08:10:43;;;;;;;5.80;4.43;;;;;;;22.68;53.77;98116.91;5051919;28;20217;-31
2022/10/05 08:13:32;;;;;;;5.60;3.90;;;;;;;22.68;53.79;98114.34;5027143;28;20508;-31
2022/10/05 08:16:00;;;;;;;5.90;4.00;;;;;;;22.69;53.81;98117.78;5045812;28;20235;-31
2022/10/05 08:18:55;;;;;;;6.27;4.50;;;;;;;22.67;53.89;98110.06;5031019;28;20248;-31
2022/10/05 08:21:30;;;;;;;5.00;4.20;;;;;;;22.68;53.87;98106.66;5021466;28;20692;-31
2022/10/05 08:24:02;;;;;;;4.87;4.37;;;;;;;22.68;54.00;98109.22;5048018;28;20610;-31
2022/10/05 08:26:47;;;;;;;4.80;4.00;;;;;;;22.69;53.95;98117.78;5039515;28;20761;-31
2022/10/05 08:29:33;;;;;;;3.97;3.53;;;;;;;22.70;54.24;98109.28;5044517;28;20201;-31
2022/10/05 08:32:02;;;;;;;9.03;4.23;;;;;;;22.69;54.04;98115.22;5049420;28;20203;-31
2022/10/05 08:34:38;;;;;;;5.40;4.00;;;;;;;22.71;54.23;98121.28;5029131;28;20205;-31
2022/10/05 08:37:26;;;;;;;6.97;4.10;;;;;;;22.66;54.17;98116.00;5044336;28;20726;-31
2022/10/05 08:40:02;;;;;;;5.53;4.10;;;;;;;22.70;54.14;98117.84;5046244;28;20572;-31
2022/10/05 08:43:10;;;;;;;4.73;3.90;;;;;;;22.72;54.15;98115.34;5040587;28;20221;-31
2022/10/05 08:46:10;;;;;;;5.27;4.20;;;;;;;22.71;54.16;98116.16;5043887;28;20703;-31
2022/10/05 08:48:37;;;;;;;4.23;3.83;;;;;;;22.72;54.22;98116.22;5043132;28;20201;-31
2022/10/05 08:51:09;;;;;;;4.53;3.80;;;;;;;22.72;54.17;98116.22;5046117;28;20201;-31
2022/10/05 08:53:42;;;;;;;5.30;3.70;;;;;;;22.72;54.28;98120.47;5046359;28;20197;-31
2022/10/05 08:56:27;;;;;;;5.23;3.73;;;;;;;22.72;54.24;98120.47;5033537;28;20240;-31
2022/10/05 08:59:06;;;;;;;7.07;3.60;;;;;;;22.71;54.33;98117.00;5044892;28;20207;-31
2022/10/05 09:02:01;;;;;;;6.93;4.10;;;;;;;22.72;54.34;98123.91;5047373;28;20201;-31
2022/10/05 09:04:37;;;;;;;3.87;3.57;;;;;;;22.68;54.36;98113.50;5043943;28;20515;-31
2022/10/05 09:07:34;;;;;;;4.50;3.80;;;;;;;22.72;54.33;98118.78;5048618;28;20725;-31
2022/10/05 09:10:15;;;;;;;4.50;3.53;;;;;;;22.72;54.42;98128.16;5033113;28;20201;-31
2022/10/05 09:13:03;;;;;;;5.50;3.50;;;;;;;22.72;54.55;98120.47;5050075;28;20201;-31
2022/10/05 09:15:41;;;;;;;4.20;3.80;;;;;;;22.71;54.46;98122.13;5043640;28;20220;-31
2022/10/05 09:18:29;;;;;;;7.47;3.50;;;;;;;22.72;54.50;98129.03;5040356;28;20258;-31
2022/10/05 09:21:04;;;;;;;3.70;3.40;;;;;;;22.72;54.51;98121.34;5050280;28;20671;-31
2022/10/05 09:23:38;;;;;;;4.80;3.97;;;;;;;22.73;54.42;98117.94;5050209;28;20220;-31
2022/10/05 09:26:08;;;;;;;5.03;3.43;;;;;;;22.73;54.40;98117.06;5050222;28;20315;-31
2022/10/05 09:28:46;;;;;;;5.80;3.93;;;;;;;22.73;54.25;98115.38;5050175;28;20601;-31
2022/10/05 09:31:29;;;;;;;7.40;4.07;;;;;;;22.73;54.40;98111.94;5048323;28;20201;-31
2022/10/05 09:34:17;;;;;;;3.90;3.50;;;;;;;22.73;54.30;98110.25;5049574;28;20315;-31
2022/10/05 09:36:47;;;;;;;3.40;3.10;;;;;;;22.73;54.47;98110.25;5051177;28;20220;-31
2022/10/05 09:39:38;;;;;;;4.80;3.60;;;;;;;22.74;54.62;98112.00;5049153;28;20591;-31
2022/10/05 09:42:21;;;;;;;4.30;3.43;;;;;;;22.75;54.55;98112.88;5049149;28;20564;-31
2022/10/05 09:44:52;;;;;;;3.70;3.40;;;;;;;22.74;54.58;98104.31;5047312;28;20208;-31
2022/10/05 09:47:44;;;;;;;5.27;3.17;;;;;;;22.74;54.64;98104.31;5047634;28;20216;-31
2022/10/05 09:50:35;;;;;;;5.63;3.17;;;;;;;22.73;54.61;98100.00;5049401;28;20619;-31
2022/10/05 09:53:08;;;;;;;3.80;3.17;;;;;;;22.75;54.65;98107.75;5048595;28;20197;-31
2022/10/05 09:55:49;;;;;;;4.20;3.43;;;;;;;22.66;54.78;98092.06;5047771;28;20232;-31
2022/10/05 09:58:29;;;;;;;3.73;3.27;;;;;;;22.73;54.58;98101.69;5048488;28;20577;-30
2022/10/05 10:00:59;;;;;;;4.10;3.13;;;;;;;22.74;54.64;98104.31;5049217;28;20201;-31
2022/10/05 10:03:50;;;;;;;4.70;3.50;;;;;;;22.75;54.62;98107.75;5044012;28;20231;-31
2022/10/05 10:06:28;;;;;;;3.87;3.47;;;;;;;22.76;54.58;98106.91;5049183;28;20224;-31
2022/10/05 10:09:13;;;;;;;3.87;3.20;;;;;;;22.75;54.76;98105.19;5048532;28;20223;-31
2022/10/05 10:11:53;;;;;;;6.00;3.40;;;;;;;22.65;54.56;98088.63;5048573;28;20212;-30
2022/10/05 10:14:49;;;;;;;3.30;3.00;;;;;;;22.76;54.70;98099.22;5037530;28;20208;-31
2022/10/05 10:17:50;;;;;;;4.00;3.60;;;;;;;22.76;54.70;98104.34;5042981;28;20228;-31
2022/10/05 10:20:48;;;;;;;4.63;3.60;;;;;;;22.75;54.71;98103.50;5063752;28;20651;-31
2022/10/05 10:23:47;;;;;;;3.63;3.27;;;;;;;22.75;54.65;98097.50;5047158;28;20220;-31
2022/10/05 10:26:32;;;;;;;3.67;3.30;;;;;;;22.76;54.48;98104.34;5046766;28;20228;-31
2022/10/05 10:29:32;;;;;;;3.60;3.17;;;;;;;22.76;54.76;98094.09;5048502;28;20220;-31
2022/10/05 10:32:18;;;;;;;3.77;3.47;;;;;;;22.76;54.72;98091.53;5046908;28;20201;-31
2022/10/05 10:34:54;;;;;;;5.10;3.77;;;;;;;22.76;54.83;98091.53;5047088;28;20598;-31
2022/10/05 10:37:38;;;;;;;5.13;3.43;;;;;;;22.72;54.84;98085.47;5048081;28;20223;-31
2022/10/05 10:40:35;;;;;;;3.40;3.10;;;;;;;22.10;54.92;97968.88;5046685;28;20197;-31
2022/10/05 10:43:58;;;;;;;4.53;3.20;;;;;;;22.78;54.79;98089.91;5045131;28;20224;-31
2022/10/05 10:46:38;;;;;;;4.30;3.30;;;;;;;22.77;54.79;98080.50;5004710;28;20222;-31
2022/10/05 10:49:32;;;;;;;4.47;3.17;;;;;;;22.74;54.78;98081.25;5039698;28;20200;-31
2022/10/05 10:52:14;;;;;;;5.10;3.20;;;;;;;22.77;54.94;98083.91;5032979;28;20213;-30
2022/10/05 10:55:08;;;;;;;5.47;3.40;;;;;;;22.75;54.84;98079.56;5060800;28;20686;-31
2022/10/05 10:57:54;;;;;;;5.97;3.17;;;;;;;22.77;54.90;98081.34;5048284;28;20201;-31
2022/10/05 11:00:26;;;;;;;4.17;3.00;;;;;;;22.77;54.83;98075.38;5050346;28;20238;-31
2022/10/05 11:03:14;;;;;;;3.83;3.30;;;;;;;22.77;54.85;98072.81;5037071;28;20266;-31
2022/10/05 11:06:12;;;;;;;5.50;3.27;;;;;;;22.76;54.84;98071.91;5044124;28;20235;-31
2022/10/05 11:08:51;;;;;;;4.67;3.27;;;;;;;22.77;54.91;98075.38;5045699;28;20212;-31
2022/10/05 11:11:46;;;;;;;5.10;3.50;;;;;;;22.77;54.90;98060.00;5044192;28;20204;-31
2022/10/05 11:14:47;;;;;;;4.77;4.00;;;;;;;22.76;54.87;98058.22;5039397;28;20208;-31
2022/10/05 11:17:50;;;;;;;4.30;2.90;;;;;;;22.76;55.02;98061.69;5042009;28;20216;-31
2022/10/05 11:20:20;;;;;;;7.40;4.10;;;;;;;22.76;54.93;98058.22;5035710;28;20663;-31
2022/10/05 11:22:58;;;;;;;4.80;3.63;;;;;;;22.75;55.03;98049.69;5030808;28;20255;-31
2022/10/05 11:25:46;;;;;;;5.43;3.80;;;;;;;22.77;54.92;98047.19;5030469;28;20678;-31
2022/10/05 11:28:26;;;;;;;6.00;4.47;;;;;;;22.77;54.82;98044.63;5041497;28;20205;-31
2022/10/05 11:31:27;;;;;;;4.37;3.83;;;;;;;22.77;54.95;98034.38;5050667;28;20674;-31
2022/10/05 11:34:24;;;;;;;7.10;4.30;;;;;;;22.78;54.82;98041.22;5045101;28;20200;-31
2022/10/05 11:37:09;;;;;;;8.43;4.60;;;;;;;22.77;55.00;98032.66;5046992;28;20727;-40
2022/10/05 11:39:43;;;;;;;7.97;5.10;;;;;;;22.78;54.95;98033.53;5050917;28;20196;-31
2022/10/05 11:42:28;;;;;;;8.97;5.60;;;;;;;22.78;55.03;98036.09;5045802;28;20585;-31
2022/10/05 11:45:07;;;;;;;10.53;5.90;;;;;;;22.78;55.00;98024.16;5041891;28;20212;-31
2022/10/05 11:47:45;;;;;;;8.37;5.60;;;;;;;22.78;55.07;98026.72;5042944;28;20217;-31
2022/10/05 11:50:29;;;;;;;9.43;6.30;;;;;;;22.78;54.98;98015.59;5046114;28;20204;-31
2022/10/05 11:53:01;;;;;;;11.33;7.13;;;;;;;22.78;54.79;98010.47;5039007;28;20263;-31
2022/10/05 11:55:56;;;;;;;9.00;6.80;;;;;;;22.77;55.16;98007.03;5032898;28;20228;-31
2022/10/05 11:58:28;;;;;;;11.40;7.47;;;;;;;22.78;55.17;98002.78;5040197;28;20201;-31
2022/10/05 12:01:25;;;;;;;13.87;7.97;;;;;;;22.78;55.24;98003.66;5016158;28;20206;-31
2022/10/05 12:04:09;;;;;;;10.20;7.43;;;;;;;22.79;55.24;98004.50;5036101;28;20719;-31
2022/10/05 12:06:36;;;;;;;13.50;8.40;;;;;;;22.78;55.29;97995.97;5038527;28;20228;-31
2022/10/05 12:09:06;;;;;;;12.87;8.60;;;;;;;22.79;55.22;97990.03;5048197;28;20583;-31
2022/10/05 12:11:45;;;;;;;17.93;9.20;;;;;;;22.78;55.40;97987.41;5042464;28;20207;-31
2022/10/05 12:14:24;;;;;;;13.13;8.43;;;;;;;22.78;55.20;97985.72;5033793;28;20193;-31
2022/10/05 12:16:58;;;;;;;13.27;8.97;;;;;;;22.74;55.23;97978.75;5047884;28;20223;-31
2022/10/05 12:19:35;;;;;;;16.97;9.60;;;;;;;22.79;55.27;97981.44;5039847;28;20204;-31
2022/10/05 12:22:36;;;;;;;14.57;9.27;;;;;;;22.74;55.28;97976.19;5047782;28;20583;-31
2022/10/05 12:25:22;;;;;;;16.00;9.60;;;;;;;22.79;55.11;97982.31;5028520;28;20204;-31
2022/10/05 12:27:52;;;;;;;15.87;9.57;;;;;;;22.79;55.16;97984.88;5032678;28;20580;-31
2022/10/05 12:30:45;;;;;;;12.47;8.00;;;;;;;22.68;55.42;97964.88;5011978;28;20208;-31
2022/10/05 12:33:14;;;;;;;16.03;9.23;;;;;;;22.79;55.24;97976.31;5030994;28;20228;-31
2022/10/05 12:35:47;;;;;;;16.07;9.70;;;;;;;22.73;55.02;97966.75;5034159;28;20230;-31
2022/10/05 12:38:36;;;;;;;14.13;9.00;;;;;;;22.73;55.23;97966.75;5037173;28;20636;-31
2022/10/05 12:41:26;;;;;;;17.97;10.63;;;;;;;22.78;55.28;97975.47;5050121;28;20212;-31
2022/10/05 12:44:05;;;;;;;16.27;10.17;;;;;;;22.79;55.14;97976.31;5035590;28;20221;-31